sensor_id;sensor_type;location;lat;lon;timestamp;temperature;humidity
70368;DHT22;57789;53.868;10.728;2023-01-01T00:01:29;15.10;99.90
70368;DHT22;57789;53.868;10.728;2023-01-01T00:03:57;15.20;99.90
70368;DHT22;57789;53.868;10.728;2023-01-01T00:06:24;15.20;99.90
70368;DHT22;57789;53.868;10.728;2023-01-01T00:08:50;15.20;99.90
70368;DHT22;57789;53.868;10.728;2023-01-01T00:11:38;15.20;99.90
70368;DHT22;57789;53.868;10.728;2023-01-01T00:14:04;15.20;99.90
70368;DHT22;57789;53.868;10.728;2023-01-01T00:16:30;15.20;99.90
70368;DHT22;57789;53.868;10.728;2023-01-01T00:18:55;15.20;99.90
70368;DHT22;57789;53.868;10.728;2023-01-01T00:21:21;15.20;99.90
70368;DHT22;57789;53.868;10.728;2023-01-01T00:23:47;15.20;99.90
70368;DHT22;57789;53.868;10.728;2023-01-01T00:26:15;15.30;99.90
70368;DHT22;57789;53.868;10.728;2023-01-01T00:28:42;15.30;99.90
70368;DHT22;57789;53.868;10.728;2023-01-01T00:31:19;15.40;99.90
70368;DHT22;57789;53.868;10.728;2023-01-01T00:33:48;15.30;99.90
70368;DHT22;57789;53.868;10.728;2023-01-01T00:36:15;15.40;99.90
70368;DHT22;57789;53.868;10.728;2023-01-01T00:38:43;15.40;99.90
70368;DHT22;57789;53.868;10.728;2023-01-01T00:41:09;15.40;99.90
70368;DHT22;57789;53.868;10.728;2023-01-01T00:43:35;15.40;99.90
70368;DHT22;57789;53.868;10.728;2023-01-01T00:46:02;15.30;99.90
70368;DHT22;57789;53.868;10.728;2023-01-01T00:48:28;15.40;99.90
70368;DHT22;57789;53.868;10.728;2023-01-01T00:50:54;15.40;99.90
70368;DHT22;57789;53.868;10.728;2023-01-01T00:53:20;15.40;99.90
70368;DHT22;57789;53.868;10.728;2023-01-01T00:55:48;15.40;99.90
70368;DHT22;57789;53.868;10.728;2023-01-01T00:58:15;15.50;99.90
70368;DHT22;57789;53.868;10.728;2023-01-01T01:00:41;15.50;99.90
70368;DHT22;57789;53.868;10.728;2023-01-01T01:03:08;15.50;99.90
70368;DHT22;57789;53.868;10.728;2023-01-01T01:05:34;15.50;99.90
70368;DHT22;57789;53.868;10.728;2023-01-01T01:08:02;15.40;99.90
70368;DHT22;57789;53.868;10.728;2023-01-01T01:10:29;15.40;99.90
70368;DHT22;57789;53.868;10.728;2023-01-01T01:12:55;15.40;99.90
70368;DHT22;57789;53.868;10.728;2023-01-01T01:15:22;15.40;99.90
70368;DHT22;57789;53.868;10.728;2023-01-01T01:17:51;15.50;99.90
70368;DHT22;57789;53.868;10.728;2023-01-01T01:20:22;15.50;99.90
70368;DHT22;57789;53.868;10.728;2023-01-01T01:22:55;15.60;99.90
70368;DHT22;57789;53.868;10.728;2023-01-01T01:25:22;15.60;99.90
70368;DHT22;57789;53.868;10.728;2023-01-01T01:27:48;15.60;99.90
70368;DHT22;57789;53.868;10.728;2023-01-01T01:30:14;15.70;99.90
70368;DHT22;57789;53.868;10.728;2023-01-01T01:32:40;15.70;99.90
70368;DHT22;57789;53.868;10.728;2023-01-01T01:35:08;15.60;99.90
70368;DHT22;57789;53.868;10.728;2023-01-01T01:37:39;15.50;99.90
70368;DHT22;57789;53.868;10.728;2023-01-01T01:40:06;15.50;99.90
70368;DHT22;57789;53.868;10.728;2023-01-01T01:42:32;15.60;99.90
70368;DHT22;57789;53.868;10.728;2023-01-01T01:45:00;15.60;99.90
70368;DHT22;57789;53.868;10.728;2023-01-01T01:47:59;15.60;99.90
70368;DHT22;57789;53.868;10.728;2023-01-01T01:50:31;15.60;99.90
70368;DHT22;57789;53.868;10.728;2023-01-01T01:55:26;15.60;99.90
70368;DHT22;57789;53.868;10.728;2023-01-01T01:57:53;15.60;99.90
70368;DHT22;57789;53.868;10.728;2023-01-01T02:00:21;15.60;99.90
70368;DHT22;57789;53.868;10.728;2023-01-01T02:02:56;15.60;99.90
70368;DHT22;57789;53.868;10.728;2023-01-01T02:05:23;15.60;99.90
70368;DHT22;57789;53.868;10.728;2023-01-01T02:07:51;15.60;99.90
70368;DHT22;57789;53.868;10.728;2023-01-01T02:10:18;15.50;99.90
70368;DHT22;57789;53.868;10.728;2023-01-01T02:12:45;15.50;99.90
70368;DHT22;57789;53.868;10.728;2023-01-01T02:15:15;15.60;99.90
70368;DHT22;57789;53.868;10.728;2023-01-01T02:28:51;15.50;99.90
70368;DHT22;57789;53.868;10.728;2023-01-01T02:31:25;15.50;99.90
70368;DHT22;57789;53.868;10.728;2023-01-01T02:33:54;15.50;99.90
70368;DHT22;57789;53.868;10.728;2023-01-01T02:36:25;15.60;99.90
70368;DHT22;57789;53.868;10.728;2023-01-01T02:38:54;15.60;99.90
70368;DHT22;57789;53.868;10.728;2023-01-01T02:41:42;15.60;99.90
70368;DHT22;57789;53.868;10.728;2023-01-01T02:44:14;15.50;99.90
70368;DHT22;57789;53.868;10.728;2023-01-01T02:46:43;15.50;99.90
70368;DHT22;57789;53.868;10.728;2023-01-01T02:49:10;15.40;99.90
70368;DHT22;57789;53.868;10.728;2023-01-01T02:52:09;15.40;99.90
70368;DHT22;57789;53.868;10.728;2023-01-01T02:57:40;15.30;99.90
70368;DHT22;57789;53.868;10.728;2023-01-01T03:00:11;15.30;99.90
70368;DHT22;57789;53.868;10.728;2023-01-01T03:03:24;15.30;99.90
70368;DHT22;57789;53.868;10.728;2023-01-01T03:06:15;15.00;99.90
70368;DHT22;57789;53.868;10.728;2023-01-01T03:11:41;14.80;99.90
70368;DHT22;57789;53.868;10.728;2023-01-01T03:14:57;14.80;99.90
70368;DHT22;57789;53.868;10.728;2023-01-01T03:19:41;14.80;99.90
70368;DHT22;57789;53.868;10.728;2023-01-01T03:22:13;14.90;99.90
70368;DHT22;57789;53.868;10.728;2023-01-01T03:25:03;14.90;99.90
70368;DHT22;57789;53.868;10.728;2023-01-01T03:27:48;15.00;99.90
70368;DHT22;57789;53.868;10.728;2023-01-01T03:30:17;15.00;99.90
70368;DHT22;57789;53.868;10.728;2023-01-01T03:32:48;15.00;99.90
70368;DHT22;57789;53.868;10.728;2023-01-01T03:38:04;15.00;99.90
70368;DHT22;57789;53.868;10.728;2023-01-01T03:40:33;15.00;99.90
70368;DHT22;57789;53.868;10.728;2023-01-01T03:43:33;15.10;99.90
70368;DHT22;57789;53.868;10.728;2023-01-01T03:46:03;15.10;99.90
70368;DHT22;57789;53.868;10.728;2023-01-01T03:48:29;15.10;99.90
70368;DHT22;57789;53.868;10.728;2023-01-01T03:53:53;15.10;99.90
70368;DHT22;57789;53.868;10.728;2023-01-01T03:56:44;15.10;99.90
70368;DHT22;57789;53.868;10.728;2023-01-01T03:59:22;15.00;99.90
70368;DHT22;57789;53.868;10.728;2023-01-01T04:01:52;15.00;99.90
70368;DHT22;57789;53.868;10.728;2023-01-01T04:04:21;15.00;99.90
70368;DHT22;57789;53.868;10.728;2023-01-01T04:06:48;15.00;99.90
70368;DHT22;57789;53.868;10.728;2023-01-01T04:09:21;14.90;99.90
70368;DHT22;57789;53.868;10.728;2023-01-01T04:11:48;14.80;99.90
70368;DHT22;57789;53.868;10.728;2023-01-01T04:14:34;14.80;99.90
70368;DHT22;57789;53.868;10.728;2023-01-01T04:17:01;14.70;99.90
70368;DHT22;57789;53.868;10.728;2023-01-01T04:19:28;14.70;99.90
70368;DHT22;57789;53.868;10.728;2023-01-01T04:21:54;14.60;99.90
70368;DHT22;57789;53.868;10.728;2023-01-01T04:24:19;14.60;99.90
70368;DHT22;57789;53.868;10.728;2023-01-01T04:26:46;14.60;99.90
70368;DHT22;57789;53.868;10.728;2023-01-01T04:29:12;14.60;99.90
70368;DHT22;57789;53.868;10.728;2023-01-01T04:31:38;14.70;99.90
70368;DHT22;57789;53.868;10.728;2023-01-01T04:34:04;14.70;99.90
70368;DHT22;57789;53.868;10.728;2023-01-01T04:36:30;14.70;99.90
70368;DHT22;57789;53.868;10.728;2023-01-01T04:38:55;14.80;99.90
70368;DHT22;57789;53.868;10.728;2023-01-01T04:41:22;14.80;99.90
70368;DHT22;57789;53.868;10.728;2023-01-01T04:43:48;14.80;99.90
70368;DHT22;57789;53.868;10.728;2023-01-01T04:46:15;14.70;99.90
70368;DHT22;57789;53.868;10.728;2023-01-01T04:48:42;14.80;99.90
70368;DHT22;57789;53.868;10.728;2023-01-01T04:51:09;14.80;99.90
70368;DHT22;57789;53.868;10.728;2023-01-01T04:53:35;14.80;99.90
70368;DHT22;57789;53.868;10.728;2023-01-01T04:58:33;14.90;99.90
70368;DHT22;57789;53.868;10.728;2023-01-01T05:01:00;14.90;99.90
70368;DHT22;57789;53.868;10.728;2023-01-01T05:03:26;14.90;99.90
70368;DHT22;57789;53.868;10.728;2023-01-01T05:06:10;14.90;99.90
70368;DHT22;57789;53.868;10.728;2023-01-01T05:08:37;14.90;99.90
70368;DHT22;57789;53.868;10.728;2023-01-01T05:11:12;14.90;99.90
70368;DHT22;57789;53.868;10.728;2023-01-01T05:13:40;14.90;99.90
70368;DHT22;57789;53.868;10.728;2023-01-01T05:16:08;14.80;99.90
70368;DHT22;57789;53.868;10.728;2023-01-01T05:18:35;14.80;99.90
70368;DHT22;57789;53.868;10.728;2023-01-01T05:21:05;14.90;99.90
70368;DHT22;57789;53.868;10.728;2023-01-01T05:23:33;14.90;99.90
70368;DHT22;57789;53.868;10.728;2023-01-01T05:26:09;14.90;99.90
70368;DHT22;57789;53.868;10.728;2023-01-01T05:28:36;14.80;99.90
70368;DHT22;57789;53.868;10.728;2023-01-01T05:31:12;14.80;99.90
70368;DHT22;57789;53.868;10.728;2023-01-01T05:33:48;14.80;99.90
70368;DHT22;57789;53.868;10.728;2023-01-01T05:36:17;14.80;99.90
70368;DHT22;57789;53.868;10.728;2023-01-01T05:38:45;14.80;99.90
70368;DHT22;57789;53.868;10.728;2023-01-01T05:41:13;14.80;99.90
70368;DHT22;57789;53.868;10.728;2023-01-01T05:43:40;14.90;99.90
70368;DHT22;57789;53.868;10.728;2023-01-01T05:46:14;14.90;99.90
70368;DHT22;57789;53.868;10.728;2023-01-01T05:48:40;14.90;99.90
70368;DHT22;57789;53.868;10.728;2023-01-01T05:51:13;15.00;99.90
70368;DHT22;57789;53.868;10.728;2023-01-01T05:53:40;14.90;99.90
70368;DHT22;57789;53.868;10.728;2023-01-01T05:56:10;15.00;99.90
70368;DHT22;57789;53.868;10.728;2023-01-01T05:58:39;15.00;99.90
70368;DHT22;57789;53.868;10.728;2023-01-01T06:01:11;15.00;99.90
70368;DHT22;57789;53.868;10.728;2023-01-01T06:03:41;15.00;99.90
70368;DHT22;57789;53.868;10.728;2023-01-01T06:06:16;14.90;99.90
70368;DHT22;57789;53.868;10.728;2023-01-01T06:08:49;14.80;99.90
70368;DHT22;57789;53.868;10.728;2023-01-01T06:11:16;14.60;99.90
70368;DHT22;57789;53.868;10.728;2023-01-01T06:13:42;14.60;99.90
70368;DHT22;57789;53.868;10.728;2023-01-01T06:16:12;14.50;99.90
70368;DHT22;57789;53.868;10.728;2023-01-01T06:18:39;14.60;99.90
70368;DHT22;57789;53.868;10.728;2023-01-01T06:21:12;14.60;99.90
70368;DHT22;57789;53.868;10.728;2023-01-01T06:23:38;14.60;99.90
70368;DHT22;57789;53.868;10.728;2023-01-01T06:26:19;14.60;99.90
70368;DHT22;57789;53.868;10.728;2023-01-01T06:28:46;14.60;99.90
70368;DHT22;57789;53.868;10.728;2023-01-01T06:31:14;14.70;99.90
70368;DHT22;57789;53.868;10.728;2023-01-01T06:33:40;14.60;99.90
70368;DHT22;57789;53.868;10.728;2023-01-01T06:36:08;14.60;99.90
70368;DHT22;57789;53.868;10.728;2023-01-01T06:38:37;14.70;99.90
70368;DHT22;57789;53.868;10.728;2023-01-01T06:41:04;14.70;99.90
70368;DHT22;57789;53.868;10.728;2023-01-01T06:43:31;14.70;99.90
70368;DHT22;57789;53.868;10.728;2023-01-01T06:46:02;14.70;99.90
70368;DHT22;57789;53.868;10.728;2023-01-01T06:48:30;14.80;99.90
70368;DHT22;57789;53.868;10.728;2023-01-01T06:50:56;14.70;99.90
70368;DHT22;57789;53.868;10.728;2023-01-01T06:53:25;14.90;99.90
70368;DHT22;57789;53.868;10.728;2023-01-01T06:55:51;14.90;99.90
70368;DHT22;57789;53.868;10.728;2023-01-01T06:58:17;14.90;99.90
70368;DHT22;57789;53.868;10.728;2023-01-01T07:00:43;15.00;99.90
70368;DHT22;57789;53.868;10.728;2023-01-01T07:03:09;15.00;99.90
70368;DHT22;57789;53.868;10.728;2023-01-01T07:05:35;15.00;99.90
70368;DHT22;57789;53.868;10.728;2023-01-01T07:08:01;14.90;99.90
70368;DHT22;57789;53.868;10.728;2023-01-01T07:10:26;14.90;99.90
70368;DHT22;57789;53.868;10.728;2023-01-01T07:12:52;14.80;99.90
70368;DHT22;57789;53.868;10.728;2023-01-01T07:15:18;14.80;99.90
70368;DHT22;57789;53.868;10.728;2023-01-01T07:17:44;14.70;99.90
70368;DHT22;57789;53.868;10.728;2023-01-01T07:20:10;14.50;99.90
70368;DHT22;57789;53.868;10.728;2023-01-01T07:22:37;14.10;99.90
70368;DHT22;57789;53.868;10.728;2023-01-01T07:25:06;13.80;99.90
70368;DHT22;57789;53.868;10.728;2023-01-01T07:27:32;13.50;99.90
70368;DHT22;57789;53.868;10.728;2023-01-01T07:29:57;13.40;99.90
70368;DHT22;57789;53.868;10.728;2023-01-01T07:32:23;13.50;99.90
70368;DHT22;57789;53.868;10.728;2023-01-01T07:34:50;13.60;99.90
70368;DHT22;57789;53.868;10.728;2023-01-01T07:37:18;13.50;99.90
70368;DHT22;57789;53.868;10.728;2023-01-01T07:39:45;13.60;99.90
70368;DHT22;57789;53.868;10.728;2023-01-01T07:42:10;13.60;99.90
70368;DHT22;57789;53.868;10.728;2023-01-01T07:44:36;13.70;99.90
70368;DHT22;57789;53.868;10.728;2023-01-01T07:47:03;13.80;99.90
70368;DHT22;57789;53.868;10.728;2023-01-01T07:49:32;13.90;99.90
70368;DHT22;57789;53.868;10.728;2023-01-01T07:51:58;13.90;99.90
70368;DHT22;57789;53.868;10.728;2023-01-01T07:54:23;14.00;99.90
70368;DHT22;57789;53.868;10.728;2023-01-01T07:56:49;14.10;99.90
70368;DHT22;57789;53.868;10.728;2023-01-01T07:59:15;14.10;99.90
70368;DHT22;57789;53.868;10.728;2023-01-01T08:01:43;14.20;99.90
70368;DHT22;57789;53.868;10.728;2023-01-01T08:04:12;14.30;99.90
70368;DHT22;57789;53.868;10.728;2023-01-01T08:06:45;14.40;99.90
70368;DHT22;57789;53.868;10.728;2023-01-01T08:09:13;14.40;99.90
70368;DHT22;57789;53.868;10.728;2023-01-01T08:11:40;14.50;99.90
70368;DHT22;57789;53.868;10.728;2023-01-01T08:14:06;14.50;99.90
70368;DHT22;57789;53.868;10.728;2023-01-01T08:16:32;14.50;99.90
70368;DHT22;57789;53.868;10.728;2023-01-01T08:18:58;14.60;99.90
70368;DHT22;57789;53.868;10.728;2023-01-01T08:21:23;14.60;99.90
70368;DHT22;57789;53.868;10.728;2023-01-01T08:23:49;14.60;99.90
70368;DHT22;57789;53.868;10.728;2023-01-01T08:26:16;14.60;99.90
70368;DHT22;57789;53.868;10.728;2023-01-01T08:28:43;14.70;99.90
70368;DHT22;57789;53.868;10.728;2023-01-01T08:31:10;14.60;99.90
70368;DHT22;57789;53.868;10.728;2023-01-01T08:33:38;14.60;99.90
70368;DHT22;57789;53.868;10.728;2023-01-01T08:36:10;14.60;99.90
70368;DHT22;57789;53.868;10.728;2023-01-01T08:38:37;14.60;99.90
70368;DHT22;57789;53.868;10.728;2023-01-01T08:41:03;14.60;99.90
70368;DHT22;57789;53.868;10.728;2023-01-01T08:43:29;14.60;99.90
70368;DHT22;57789;53.868;10.728;2023-01-01T08:45:54;14.60;99.90
70368;DHT22;57789;53.868;10.728;2023-01-01T08:48:20;14.60;99.90
70368;DHT22;57789;53.868;10.728;2023-01-01T08:50:53;14.60;99.90
70368;DHT22;57789;53.868;10.728;2023-01-01T08:53:20;14.60;99.90
70368;DHT22;57789;53.868;10.728;2023-01-01T08:56:01;14.60;99.90
70368;DHT22;57789;53.868;10.728;2023-01-01T08:58:30;14.60;99.90
70368;DHT22;57789;53.868;10.728;2023-01-01T09:00:57;14.70;99.90
70368;DHT22;57789;53.868;10.728;2023-01-01T09:03:29;14.70;99.90
70368;DHT22;57789;53.868;10.728;2023-01-01T09:06:01;14.70;99.90
70368;DHT22;57789;53.868;10.728;2023-01-01T09:08:29;14.70;99.90
70368;DHT22;57789;53.868;10.728;2023-01-01T09:11:02;14.70;99.90
70368;DHT22;57789;53.868;10.728;2023-01-01T09:13:29;14.70;99.90
70368;DHT22;57789;53.868;10.728;2023-01-01T09:15:55;14.70;99.90
70368;DHT22;57789;53.868;10.728;2023-01-01T09:18:21;14.70;99.90
70368;DHT22;57789;53.868;10.728;2023-01-01T09:20:47;14.70;99.90
70368;DHT22;57789;53.868;10.728;2023-01-01T09:23:13;14.70;99.90
70368;DHT22;57789;53.868;10.728;2023-01-01T09:25:39;14.70;99.90
70368;DHT22;57789;53.868;10.728;2023-01-01T09:28:09;14.60;99.90
70368;DHT22;57789;53.868;10.728;2023-01-01T09:30:37;14.70;99.90
70368;DHT22;57789;53.868;10.728;2023-01-01T09:33:06;14.70;99.90
70368;DHT22;57789;53.868;10.728;2023-01-01T09:35:32;14.70;99.90
70368;DHT22;57789;53.868;10.728;2023-01-01T09:37:58;14.60;99.90
70368;DHT22;57789;53.868;10.728;2023-01-01T09:43:52;14.70;99.90
70368;DHT22;57789;53.868;10.728;2023-01-01T09:46:22;14.70;99.90
70368;DHT22;57789;53.868;10.728;2023-01-01T09:48:55;14.60;99.90
70368;DHT22;57789;53.868;10.728;2023-01-01T09:51:23;14.60;99.90
70368;DHT22;57789;53.868;10.728;2023-01-01T09:53:54;14.60;99.90
70368;DHT22;57789;53.868;10.728;2023-01-01T09:56:29;14.60;99.90
70368;DHT22;57789;53.868;10.728;2023-01-01T09:58:59;14.60;99.90
70368;DHT22;57789;53.868;10.728;2023-01-01T10:01:30;14.60;99.90
70368;DHT22;57789;53.868;10.728;2023-01-01T10:04:22;14.60;99.90
70368;DHT22;57789;53.868;10.728;2023-01-01T10:13:01;14.50;99.90
70368;DHT22;57789;53.868;10.728;2023-01-01T10:15:36;14.50;99.90
70368;DHT22;57789;53.868;10.728;2023-01-01T10:18:12;14.40;99.90
70368;DHT22;57789;53.868;10.728;2023-01-01T10:20:54;14.40;99.90
70368;DHT22;57789;53.868;10.728;2023-01-01T10:23:39;14.40;99.90
70368;DHT22;57789;53.868;10.728;2023-01-01T10:26:20;14.30;99.90
70368;DHT22;57789;53.868;10.728;2023-01-01T10:29:08;14.30;99.90
70368;DHT22;57789;53.868;10.728;2023-01-01T10:31:41;14.30;99.90
70368;DHT22;57789;53.868;10.728;2023-01-01T10:34:26;14.30;99.90
70368;DHT22;57789;53.868;10.728;2023-01-01T10:36:57;14.30;99.90
70368;DHT22;57789;53.868;10.728;2023-01-01T10:39:24;14.30;99.90
70368;DHT22;57789;53.868;10.728;2023-01-01T10:41:50;14.30;99.90
70368;DHT22;57789;53.868;10.728;2023-01-01T10:44:25;14.20;99.90
70368;DHT22;57789;53.868;10.728;2023-01-01T10:46:57;14.20;99.90
70368;DHT22;57789;53.868;10.728;2023-01-01T10:49:24;14.30;99.90
70368;DHT22;57789;53.868;10.728;2023-01-01T10:51:51;14.20;99.90
70368;DHT22;57789;53.868;10.728;2023-01-01T10:56:53;14.30;99.90
70368;DHT22;57789;53.868;10.728;2023-01-01T10:59:41;14.40;99.90
70368;DHT22;57789;53.868;10.728;2023-01-01T11:02:27;14.50;99.90
70368;DHT22;57789;53.868;10.728;2023-01-01T11:05:18;14.60;99.90
70368;DHT22;57789;53.868;10.728;2023-01-01T11:07:44;14.60;99.90
70368;DHT22;57789;53.868;10.728;2023-01-01T11:10:20;14.70;99.90
70368;DHT22;57789;53.868;10.728;2023-01-01T11:12:46;14.60;99.90
70368;DHT22;57789;53.868;10.728;2023-01-01T11:15:40;14.60;99.90
70368;DHT22;57789;53.868;10.728;2023-01-01T11:18:20;14.50;99.90
70368;DHT22;57789;53.868;10.728;2023-01-01T11:20:54;14.50;99.90
70368;DHT22;57789;53.868;10.728;2023-01-01T11:23:29;14.60;99.90
70368;DHT22;57789;53.868;10.728;2023-01-01T11:26:00;14.70;99.90
70368;DHT22;57789;53.868;10.728;2023-01-01T11:28:26;14.70;99.90
70368;DHT22;57789;53.868;10.728;2023-01-01T11:31:17;14.70;99.90
70368;DHT22;57789;53.868;10.728;2023-01-01T11:36:09;14.40;99.90
70368;DHT22;57789;53.868;10.728;2023-01-01T11:38:36;14.40;99.90
70368;DHT22;57789;53.868;10.728;2023-01-01T11:41:06;14.40;99.90
70368;DHT22;57789;53.868;10.728;2023-01-01T11:43:46;14.30;99.90
70368;DHT22;57789;53.868;10.728;2023-01-01T11:46:22;14.40;99.90
70368;DHT22;57789;53.868;10.728;2023-01-01T11:48:49;14.40;99.90
70368;DHT22;57789;53.868;10.728;2023-01-01T11:51:29;14.30;99.90
70368;DHT22;57789;53.868;10.728;2023-01-01T11:54:23;14.30;99.90
70368;DHT22;57789;53.868;10.728;2023-01-01T11:56:53;14.30;99.90
70368;DHT22;57789;53.868;10.728;2023-01-01T11:59:24;14.30;99.90
70368;DHT22;57789;53.868;10.728;2023-01-01T12:01:58;14.30;99.90
70368;DHT22;57789;53.868;10.728;2023-01-01T12:04:48;14.30;99.90
70368;DHT22;57789;53.868;10.728;2023-01-01T12:07:32;14.30;99.90
70368;DHT22;57789;53.868;10.728;2023-01-01T12:10:01;14.30;99.90
70368;DHT22;57789;53.868;10.728;2023-01-01T12:12:40;14.30;99.90
70368;DHT22;57789;53.868;10.728;2023-01-01T12:15:45;14.40;99.90
70368;DHT22;57789;53.868;10.728;2023-01-01T12:18:31;14.20;99.90
70368;DHT22;57789;53.868;10.728;2023-01-01T12:21:24;14.20;99.90
70368;DHT22;57789;53.868;10.728;2023-01-01T12:23:51;14.10;99.90
70368;DHT22;57789;53.868;10.728;2023-01-01T12:37:38;14.10;99.90
70368;DHT22;57789;53.868;10.728;2023-01-01T12:54:27;14.00;99.90
70368;DHT22;57789;53.868;10.728;2023-01-01T12:59:35;14.10;99.90
70368;DHT22;57789;53.868;10.728;2023-01-01T13:02:20;14.10;99.90
70368;DHT22;57789;53.868;10.728;2023-01-01T13:04:53;14.20;99.90
70368;DHT22;57789;53.868;10.728;2023-01-01T13:07:37;14.30;99.90
70368;DHT22;57789;53.868;10.728;2023-01-01T13:10:38;14.30;99.90
70368;DHT22;57789;53.868;10.728;2023-01-01T13:13:06;14.20;99.90
70368;DHT22;57789;53.868;10.728;2023-01-01T13:15:45;14.10;99.90
70368;DHT22;57789;53.868;10.728;2023-01-01T13:18:26;14.00;99.90
70368;DHT22;57789;53.868;10.728;2023-01-01T13:21:03;13.90;99.90
70368;DHT22;57789;53.868;10.728;2023-01-01T13:39:56;13.60;99.90
70368;DHT22;57789;53.868;10.728;2023-01-01T13:45:27;13.60;99.90
70368;DHT22;57789;53.868;10.728;2023-01-01T13:56:31;13.70;99.90
70368;DHT22;57789;53.868;10.728;2023-01-01T13:59:58;13.70;99.90
70368;DHT22;57789;53.868;10.728;2023-01-01T14:02:34;13.70;99.90
70368;DHT22;57789;53.868;10.728;2023-01-01T14:05:17;13.70;99.90
70368;DHT22;57789;53.868;10.728;2023-01-01T14:07:49;13.70;99.90
70368;DHT22;57789;53.868;10.728;2023-01-01T14:10:27;13.70;99.90
70368;DHT22;57789;53.868;10.728;2023-01-01T14:15:32;13.60;99.90
70368;DHT22;57789;53.868;10.728;2023-01-01T14:18:21;13.50;99.90
70368;DHT22;57789;53.868;10.728;2023-01-01T14:20:50;13.40;99.90
70368;DHT22;57789;53.868;10.728;2023-01-01T14:23:21;13.30;99.90
70368;DHT22;57789;53.868;10.728;2023-01-01T14:25:48;13.20;99.90
70368;DHT22;57789;53.868;10.728;2023-01-01T14:28:29;13.10;99.90
70368;DHT22;57789;53.868;10.728;2023-01-01T14:30:58;13.00;99.90
70368;DHT22;57789;53.868;10.728;2023-01-01T14:33:29;13.00;99.90
70368;DHT22;57789;53.868;10.728;2023-01-01T14:36:02;12.90;99.90
70368;DHT22;57789;53.868;10.728;2023-01-01T14:38:34;12.80;99.90
70368;DHT22;57789;53.868;10.728;2023-01-01T14:41:40;12.80;99.90
70368;DHT22;57789;53.868;10.728;2023-01-01T14:44:15;12.80;99.90
70368;DHT22;57789;53.868;10.728;2023-01-01T14:46:51;12.70;99.90
70368;DHT22;57789;53.868;10.728;2023-01-01T14:49:26;12.60;99.90
70368;DHT22;57789;53.868;10.728;2023-01-01T14:51:57;12.50;99.90
70368;DHT22;57789;53.868;10.728;2023-01-01T14:54:30;12.50;99.90
70368;DHT22;57789;53.868;10.728;2023-01-01T14:56:58;12.40;99.90
70368;DHT22;57789;53.868;10.728;2023-01-01T14:59:29;12.40;99.90
70368;DHT22;57789;53.868;10.728;2023-01-01T15:02:23;12.30;99.90
70368;DHT22;57789;53.868;10.728;2023-01-01T15:04:49;12.30;99.90
70368;DHT22;57789;53.868;10.728;2023-01-01T15:07:27;12.20;99.90
70368;DHT22;57789;53.868;10.728;2023-01-01T15:09:57;12.20;99.90
70368;DHT22;57789;53.868;10.728;2023-01-01T15:12:25;12.10;99.90
70368;DHT22;57789;53.868;10.728;2023-01-01T15:14:54;12.10;99.90
70368;DHT22;57789;53.868;10.728;2023-01-01T15:17:25;12.10;99.90
70368;DHT22;57789;53.868;10.728;2023-01-01T15:20:23;12.00;99.90
70368;DHT22;57789;53.868;10.728;2023-01-01T15:22:50;12.00;99.90
70368;DHT22;57789;53.868;10.728;2023-01-01T15:25:25;11.90;99.90
70368;DHT22;57789;53.868;10.728;2023-01-01T15:28:13;11.90;99.90
70368;DHT22;57789;53.868;10.728;2023-01-01T15:30:44;11.90;99.90
70368;DHT22;57789;53.868;10.728;2023-01-01T15:33:21;11.90;99.90
70368;DHT22;57789;53.868;10.728;2023-01-01T15:36:07;11.90;99.90
70368;DHT22;57789;53.868;10.728;2023-01-01T15:38:47;11.90;99.90
70368;DHT22;57789;53.868;10.728;2023-01-01T15:41:43;11.90;99.90
70368;DHT22;57789;53.868;10.728;2023-01-01T15:47:02;11.90;99.90
70368;DHT22;57789;53.868;10.728;2023-01-01T15:49:31;11.90;99.90
70368;DHT22;57789;53.868;10.728;2023-01-01T15:52:05;11.80;99.90
70368;DHT22;57789;53.868;10.728;2023-01-01T15:54:44;11.80;99.90
70368;DHT22;57789;53.868;10.728;2023-01-01T15:57:29;11.70;99.90
70368;DHT22;57789;53.868;10.728;2023-01-01T15:59:57;11.70;99.90
70368;DHT22;57789;53.868;10.728;2023-01-01T16:02:31;11.70;99.90
70368;DHT22;57789;53.868;10.728;2023-01-01T16:05:01;11.70;99.90
70368;DHT22;57789;53.868;10.728;2023-01-01T16:07:34;11.70;99.90
70368;DHT22;57789;53.868;10.728;2023-01-01T16:10:01;11.70;99.90
70368;DHT22;57789;53.868;10.728;2023-01-01T16:12:27;11.70;99.90
70368;DHT22;57789;53.868;10.728;2023-01-01T16:14:54;11.70;99.90
70368;DHT22;57789;53.868;10.728;2023-01-01T16:17:20;11.80;99.90
70368;DHT22;57789;53.868;10.728;2023-01-01T16:19:46;11.70;99.90
70368;DHT22;57789;53.868;10.728;2023-01-01T16:22:14;11.70;99.90
70368;DHT22;57789;53.868;10.728;2023-01-01T16:24:43;11.70;99.90
70368;DHT22;57789;53.868;10.728;2023-01-01T16:27:10;11.60;99.90
70368;DHT22;57789;53.868;10.728;2023-01-01T16:29:38;11.60;99.90
70368;DHT22;57789;53.868;10.728;2023-01-01T16:32:04;11.60;99.90
70368;DHT22;57789;53.868;10.728;2023-01-01T16:34:30;11.50;99.90
70368;DHT22;57789;53.868;10.728;2023-01-01T16:36:57;11.50;99.90
70368;DHT22;57789;53.868;10.728;2023-01-01T16:39:23;11.50;99.90
70368;DHT22;57789;53.868;10.728;2023-01-01T16:41:48;11.50;99.90
70368;DHT22;57789;53.868;10.728;2023-01-01T16:44:14;11.50;99.90
70368;DHT22;57789;53.868;10.728;2023-01-01T16:46:41;11.50;99.90
70368;DHT22;57789;53.868;10.728;2023-01-01T16:49:07;11.40;99.90
70368;DHT22;57789;53.868;10.728;2023-01-01T16:51:33;11.50;99.90
70368;DHT22;57789;53.868;10.728;2023-01-01T16:54:00;11.40;99.90
70368;DHT22;57789;53.868;10.728;2023-01-01T16:56:27;11.40;99.90
70368;DHT22;57789;53.868;10.728;2023-01-01T16:58:54;11.40;99.90
70368;DHT22;57789;53.868;10.728;2023-01-01T17:01:21;11.40;99.90
70368;DHT22;57789;53.868;10.728;2023-01-01T17:03:46;11.40;99.90
70368;DHT22;57789;53.868;10.728;2023-01-01T17:06:12;11.30;99.90
70368;DHT22;57789;53.868;10.728;2023-01-01T17:08:38;11.30;99.90
70368;DHT22;57789;53.868;10.728;2023-01-01T17:11:13;11.20;99.90
70368;DHT22;57789;53.868;10.728;2023-01-01T17:13:40;11.20;99.90
70368;DHT22;57789;53.868;10.728;2023-01-01T17:16:06;11.10;99.90
70368;DHT22;57789;53.868;10.728;2023-01-01T17:18:32;11.00;99.90
70368;DHT22;57789;53.868;10.728;2023-01-01T17:21:08;11.00;99.90
70368;DHT22;57789;53.868;10.728;2023-01-01T17:23:39;10.90;99.90
70368;DHT22;57789;53.868;10.728;2023-01-01T17:26:23;10.90;99.90
70368;DHT22;57789;53.868;10.728;2023-01-01T17:28:59;10.80;99.90